createdAt,value
2022-08-18T00:01:05.818Z,95614.69
2022-08-18T00:06:08.845Z,95603.34
2022-08-18T00:11:11.451Z,95622.31
2022-08-18T00:16:14.669Z,95617.56
2022-08-18T00:21:19.512Z,95604.47
2022-08-18T00:26:21.928Z,95595.88
2022-08-18T00:31:44.511Z,95582.56
2022-08-18T00:36:49.544Z,95565.66
2022-08-18T00:42:28.985Z,95566.41
2022-08-18T00:47:42.269Z,95552.78
2022-08-18T00:52:50.232Z,95529.13
2022-08-18T00:57:55.905Z,95531.16
2022-08-18T01:03:04.292Z,95528.09
2022-08-18T01:08:08.879Z,95531.19
2022-08-18T01:13:11.583Z,95527.06
2022-08-18T01:18:15.012Z,95537.41
2022-08-18T01:23:39.224Z,95527.31
2022-08-18T01:28:44.701Z,95515.31
2022-08-18T01:33:50.711Z,95515.31
2022-08-18T01:38:58.221Z,95515.97
2022-08-18T01:44:26.282Z,95516.59
2022-08-18T01:49:37.445Z,95502.34
2022-08-18T01:55:14.818Z,95487.50
2022-08-18T02:11:56.661Z,95491.81
2022-08-18T02:17:18.045Z,95488.13
2022-08-18T02:22:56.637Z,95487.91
2022-08-18T02:34:23.922Z,95478.84
2022-08-18T02:45:16.335Z,95499.03
2022-08-18T02:50:40.315Z,95492.44
2022-08-18T02:55:49.508Z,95498.59
2022-08-18T03:01:13.184Z,95486.97
2022-08-18T03:06:47.574Z,95492.69
2022-08-18T03:18:07.355Z,95477.09
2022-08-18T03:29:34.377Z,95449.19
2022-08-18T03:35:11.253Z,95425.22
2022-08-18T03:40:58.673Z,95432.84
2022-08-18T03:52:16.853Z,95399.59
2022-08-18T03:57:55.533Z,95383.06
2022-08-18T04:03:15.793Z,95364.09
2022-08-18T04:14:51.262Z,95449.31
2022-08-18T04:20:59.934Z,95484.59
2022-08-18T04:26:25.963Z,95466.00
2022-08-18T04:31:42.598Z,95458.59
2022-08-18T04:37:32.415Z,95470.75
2022-08-18T04:43:17.737Z,95455.72
2022-08-18T04:54:36.955Z,95456.75
2022-08-18T05:00:23.701Z,95472.66
2022-08-18T06:24:56.295Z,95537.16
2022-08-18T06:30:17.167Z,95526.69
2022-08-18T06:35:45.149Z,95527.72
2022-08-18T06:40:50.035Z,95543.59
2022-08-18T06:45:52.695Z,95552.63
2022-08-18T06:51:18.114Z,95555.94
2022-08-18T06:56:38.862Z,95566.34
2022-08-18T07:01:41.338Z,95526.38
2022-08-18T07:06:43.894Z,95504.63
2022-08-18T07:12:07.895Z,95525.41
2022-08-18T07:17:20.444Z,95555.59
2022-08-18T07:22:59.862Z,95562.13
2022-08-18T07:28:40.916Z,95583.13
2022-08-18T07:33:53.634Z,95595.94
2022-08-18T07:39:38.161Z,95559.41
2022-08-18T07:45:17.903Z,95548.56
2022-08-18T07:50:58.549Z,95530.63
2022-08-18T07:56:13.622Z,95526.69
2022-08-18T08:01:24.885Z,95523.25
2022-08-18T08:07:12.839Z,95511.19
2022-08-18T08:12:41.966Z,95493.88
2022-08-18T08:17:48.748Z,95499.16
2022-08-18T08:23:32.114Z,95490.94
2022-08-18T08:29:16.875Z,95518.16
2022-08-18T08:34:52.537Z,95541.91
2022-08-18T08:40:00.806Z,95540.31
2022-08-18T08:45:10.752Z,95537.50
2022-08-18T08:50:25.555Z,95523.19
2022-08-18T08:55:35.894Z,95504.56
2022-08-18T09:00:40.321Z,95513.41
2022-08-18T09:05:57.205Z,95501.53
2022-08-18T09:11:02.674Z,95496.19
2022-08-18T09:17:00.926Z,95488.66
2022-08-18T09:22:54.482Z,95473.88
2022-08-18T09:28:23.675Z,95476.78
2022-08-18T09:34:29.356Z,95486.13
2022-08-18T09:39:39.183Z,95487.59
2022-08-18T09:50:27.147Z,95468.56
2022-08-18T09:56:01.333Z,95458.66
2022-08-18T10:01:36.102Z,95449.47
2022-08-18T10:06:39.755Z,95450.66
2022-08-18T10:17:53.542Z,95430.69
2022-08-18T10:29:41.583Z,95422.00
2022-08-18T10:34:52.569Z,95427.94
2022-08-18T10:40:21.376Z,95420.59
2022-08-18T10:45:34.966Z,95408.72
2022-08-18T10:51:14.666Z,95396.31
2022-08-18T10:57:09.029Z,95374.13
2022-08-18T11:02:23.666Z,95377.22
2022-08-18T11:07:59.005Z,95394.00
2022-08-18T11:13:15.525Z,95378.97
2022-08-18T11:18:43.311Z,95369.88
2022-08-18T11:24:08.142Z,95374.56
2022-08-18T11:29:42.479Z,95360.75
2022-08-18T11:35:11.175Z,95361.78
2022-08-18T11:41:02.053Z,95371.75
2022-08-18T11:45:44.920Z,95378.75
2022-08-18T11:56:05.358Z,95396.03
2022-08-18T12:01:41.547Z,95403.69
2022-08-18T12:06:56.150Z,95390.88
2022-08-18T12:12:38.689Z,95380.25
2022-08-18T12:17:42.560Z,95377.56
2022-08-18T12:22:57.084Z,95377.69
2022-08-18T12:28:22.189Z,95376.09
2022-08-18T12:33:25.655Z,95380.19
2022-08-18T12:38:36.882Z,95370.16
2022-08-18T12:44:02.660Z,95381.09
2022-08-18T12:49:25.280Z,95367.59
2022-08-18T12:54:55.380Z,95353.25
2022-08-18T13:00:18.931Z,95352.97
2022-08-18T13:05:40.889Z,95342.53
2022-08-18T13:10:46.838Z,95345.91
2022-08-18T13:15:57.728Z,95347.16
2022-08-18T13:21:04.607Z,95344.06
2022-08-18T13:26:17.254Z,95347.44
2022-08-18T13:31:39.547Z,95352.28
2022-08-18T13:36:42.153Z,95352.66
2022-08-18T13:41:49.000Z,95349.50
2022-08-18T13:46:51.922Z,95344.75
2022-08-18T13:52:33.112Z,95361.16
2022-08-18T13:57:37.754Z,95364.13
2022-08-18T14:02:41.538Z,95370.84
2022-08-18T14:07:45.980Z,95375.69
2022-08-18T14:12:49.717Z,95378.63
2022-08-18T14:17:56.375Z,95382.22
2022-08-18T14:23:05.856Z,95383.78
2022-08-18T14:28:11.999Z,95393.22
2022-08-18T14:33:21.216Z,95386.31
2022-08-18T14:38:44.479Z,95397.00
2022-08-18T14:44:11.455Z,95402.38
2022-08-18T14:49:11.874Z,95400.50
2022-08-18T14:54:17.983Z,95399.53
2022-08-18T14:59:21.993Z,95409.81
2022-08-18T15:04:57.904Z,95412.38
2022-08-18T15:10:28.178Z,95428.16
2022-08-18T15:15:50.639Z,95438.44
2022-08-18T15:20:54.629Z,95448.44
2022-08-18T15:25:58.885Z,95461.97
2022-08-18T15:31:17.446Z,95463.78
2022-08-18T15:41:47.484Z,95474.91
2022-08-18T15:46:53.459Z,95475.13
2022-08-18T15:51:57.298Z,95474.88
2022-08-18T15:57:02.160Z,95476.53
2022-08-18T16:02:11.773Z,95477.19
2022-08-18T16:07:41.119Z,95479.66
2022-08-18T16:18:53.778Z,95473.84
2022-08-18T16:24:18.579Z,95478.34
2022-08-18T16:29:25.724Z,95471.69
2022-08-18T16:34:39.299Z,95463.28
2022-08-18T16:39:46.098Z,95463.81
2022-08-18T16:44:49.591Z,95448.00
2022-08-18T16:49:56.855Z,95447.41
2022-08-18T16:55:01.657Z,95440.59
2022-08-18T17:00:06.689Z,95438.06
2022-08-18T17:05:10.217Z,95436.84
2022-08-18T17:15:59.530Z,95443.78
2022-08-18T17:27:26.535Z,95439.13
2022-08-18T17:33:00.562Z,95427.66
2022-08-18T17:38:57.876Z,95427.94
2022-08-18T17:44:19.108Z,95438.94
2022-08-18T17:49:39.685Z,95435.38
2022-08-18T17:55:09.627Z,95441.56
2022-08-18T18:00:16.792Z,95454.56
2022-08-18T18:05:23.759Z,95453.66
2022-08-18T18:10:51.018Z,95446.16
2022-08-18T18:16:04.360Z,95451.41
2022-08-18T18:21:53.481Z,95457.13
2022-08-18T18:26:52.722Z,95466.59
2022-08-18T18:32:02.251Z,95462.31
2022-08-18T18:37:32.449Z,95454.81
2022-08-18T18:42:37.350Z,95454.81
2022-08-18T18:48:04.224Z,95454.09
2022-08-18T18:53:45.757Z,95447.31
2022-08-18T19:04:47.966Z,95441.53
2022-08-18T19:10:46.788Z,95448.97
2022-08-18T19:15:59.370Z,95445.31
2022-08-18T19:27:10.468Z,95483.19
2022-08-18T19:32:27.110Z,95510.75
2022-08-18T19:38:01.945Z,95516.59
2022-08-18T19:43:15.851Z,95528.19
2022-08-18T19:48:56.129Z,95516.16
2022-08-18T19:54:38.811Z,95510.06
2022-08-18T20:00:16.370Z,95522.53
2022-08-18T20:05:42.773Z,95516.50
2022-08-18T20:11:14.386Z,95506.66
2022-08-18T20:16:43.781Z,95504.72
2022-08-18T20:22:30.596Z,95534.44
2022-08-18T20:27:46.587Z,95551.22
2022-08-18T20:33:08.407Z,95541.94
2022-08-18T20:38:35.693Z,95544.59
2022-08-18T20:43:40.827Z,95543.16
2022-08-18T20:48:46.281Z,95535.13
2022-08-18T20:54:13.442Z,95535.75
2022-08-18T20:59:55.715Z,95529.75
2022-08-18T21:05:00.776Z,95530.19
2022-08-18T21:10:21.193Z,95524.44
2022-08-18T21:15:28.647Z,95539.84
2022-08-18T21:20:35.724Z,95538.63
2022-08-18T21:26:09.006Z,95531.19
2022-08-18T21:31:44.110Z,95537.19
2022-08-18T21:36:54.125Z,95547.19
2022-08-18T21:41:58.745Z,95551.44
2022-08-18T21:47:18.257Z,95570.88
2022-08-18T21:52:26.389Z,95571.09
2022-08-18T21:57:52.106Z,95571.38
2022-08-18T22:03:42.235Z,95565.03
2022-08-18T22:09:05.854Z,95553.69
2022-08-18T22:14:19.924Z,95546.25
2022-08-18T22:19:26.064Z,95549.59
2022-08-18T22:24:39.173Z,95550.59
2022-08-18T22:29:50.581Z,95544.34
2022-08-18T22:35:15.549Z,95541.59
2022-08-18T22:40:21.762Z,95546.22
2022-08-18T22:45:25.730Z,95531.22
2022-08-18T22:50:28.166Z,95539.88
2022-08-18T22:55:30.770Z,95533.81
2022-08-18T23:00:35.362Z,95534.94
2022-08-18T23:05:56.871Z,95520.91
2022-08-18T23:10:59.183Z,95521.69
2022-08-18T23:16:12.399Z,95525.34
2022-08-18T23:21:53.002Z,95518.69
2022-08-18T23:26:57.109Z,95520.66
2022-08-18T23:32:21.025Z,95516.97
2022-08-18T23:37:52.764Z,95508.94
2022-08-18T23:42:55.162Z,95515.91
2022-08-18T23:47:57.665Z,95518.31
2022-08-18T23:53:02.181Z,95504.66
2022-08-18T23:58:08.422Z,95498.00
